Terminal Aerodrome Forecast
Issued by NWS Upton, NY

Home | Current Version | Previous Version | Text Only | Print | Product List | Glossary On
Versions: 1 2 3 4 5 6 7 8 9 10 11 12 13 14 15 16 17 18 19 20 21 22 23 24 25 26 27 28 29 30 31 32 33 34
995
FTUS41 KOKX 260801 AAA
TAFLGA
TAF AMD
KLGA 260801Z 2608/2706 33006KT 5SM -SHRA OVC012
     FM260900 31007KT 5SM -SHRA OVC012
     FM261100 29008KT P6SM -SHRA OVC012
     FM261700 29010G18KT P6SM BKN035
     FM262200 31010G16KT P6SM BKN035
     FM270000 32009KT P6SM SCT035=

USA.gov is the U.S. government's official web portal to all federal, state and local government web resources and services.